Burewala Weather



Burewala's Current Weather

Temprature 39.73o overcast clouds

overcast clouds

Rain: 0 %

Min Temprature39.73o
Max Temprature39.73o
Humidity33
Wind Speed3.5 m/h
Sun Rise05:23:04
Sun Set19:08:25
Current Time: 24-Jul-2021 16:51:58
Lat/Lon: 30.1667, 72.65




Burewala's Geo Location



Burewala's Weather Forecast

Time Overall Temp Min Temp Max Temp Humidity Wind Speed Rain
24-Jul-2021 (Sat)
17:00:00 overcast clouds 39.730 39.730 39.730 33 3.5 m/h 0 %
20:00:00 broken clouds 38.870 37.150 38.870 36 2.34 m/h 0 %
23:00:00 scattered clouds 37.280 36.050 37.280 41 2.67 m/h 0 %
25-Jul-2021 (Sun)
02:00:00 few clouds 34.980 34.980 34.980 48 2.76 m/h 0 %
05:00:00 few clouds 34.340 34.340 34.340 49 2.27 m/h 0 %
08:00:00 few clouds 37.750 37.750 37.750 40 2.78 m/h 0 %
11:00:00 few clouds 41.430 41.430 41.430 30 2.99 m/h 0 %
14:00:00 few clouds 44.100 44.100 44.100 24 3.39 m/h 0 %
17:00:00 scattered clouds 43.770 43.770 43.770 24 4.52 m/h 0 %
20:00:00 scattered clouds 40.770 40.770 40.770 30 3.7 m/h 0 %
23:00:00 broken clouds 39.260 39.260 39.260 32 3.39 m/h 0 %
26-Jul-2021 (Mon)
02:00:00 scattered clouds 37.220 37.220 37.220 40 6.2 m/h 0 %
05:00:00 few clouds 35.660 35.660 35.660 44 5.06 m/h 0 %
08:00:00 clear sky 37.270 37.270 37.270 41 6.5 m/h 0 %
11:00:00 scattered clouds 41.430 41.430 41.430 31 6.06 m/h 0 %
14:00:00 overcast clouds 41.900 41.900 41.900 30 6.14 m/h 0 %
17:00:00 overcast clouds 41.070 41.070 41.070 31 7.09 m/h 0 %
20:00:00 overcast clouds 38.680 38.680 38.680 35 6.23 m/h 0 %
23:00:00 overcast clouds 36.850 36.850 36.850 40 8.04 m/h 0 %
27-Jul-2021 (Tue)
02:00:00 overcast clouds 34.250 34.250 34.250 48 8.97 m/h 0 %
05:00:00 overcast clouds 31.520 31.520 31.520 60 8.25 m/h 0 %
08:00:00 overcast clouds 32.280 32.280 32.280 58 7.61 m/h 0 %
11:00:00 overcast clouds 36.140 36.140 36.140 43 7.24 m/h 0 %
14:00:00 scattered clouds 37.910 37.910 37.910 39 7.52 m/h 0 %
17:00:00 broken clouds 37.620 37.620 37.620 39 7.06 m/h 0 %
20:00:00 broken clouds 34.150 34.150 34.150 48 7.67 m/h 0 %
23:00:00 overcast clouds 32.660 32.660 32.660 54 6.41 m/h 0 %
28-Jul-2021 (Wed)
02:00:00 overcast clouds 30.800 30.800 30.800 63 5.41 m/h 0 %
05:00:00 broken clouds 30.180 30.180 30.180 66 4.37 m/h 0 %
08:00:00 broken clouds 31.990 31.990 31.990 59 5.51 m/h 0 %
11:00:00 broken clouds 36.150 36.150 36.150 45 4.85 m/h 0 %
14:00:00 overcast clouds 37.400 37.400 37.400 40 5.35 m/h 0 %
17:00:00 overcast clouds 37.030 37.030 37.030 41 5.08 m/h 0 %
20:00:00 overcast clouds 33.700 33.700 33.700 52 5.47 m/h 0 %
23:00:00 overcast clouds 31.630 31.630 31.630 61 5.62 m/h 0 %
29-Jul-2021 (Thu)
02:00:00 broken clouds 31.220 31.220 31.220 62 3.97 m/h 0 %
05:00:00 light rain 29.870 29.870 29.870 67 1.29 m/h 142 %
08:00:00 light rain 32.930 32.930 32.930 55 1.69 m/h 52 %
11:00:00 overcast clouds 37.410 37.410 37.410 42 1.37 m/h 0 %
14:00:00 light rain 37.880 37.880 37.880 40 3.53 m/h 19 %


Burewala's Tourist Spots

Historical Places in Burewala

Famous Cities (60)